Time;durP1;ratioP1;P1;durP2;ratioP2;P2;SDS_P1;SDS_P2;PMS_P1;PMS_P2;Temp;Humidity;BMP_temperature;BMP_pressure;BME280_temperature;BME280_humidity;BME280_pressure;Samples;Min_cycle;Max_cycle;Signal;HPM_P1;HPM_P2
2023/11/22 00:00:48;;;;;;;23.57;10.20;;;;;;;-145.69;66.12;52327.53;5113560;28;20208;-79
2023/11/22 00:03:15;;;;;;;17.17;8.80;;;;;;;-145.69;66.12;52293.88;5113798;28;20212;-79
2023/11/22 00:05:41;;;;;;;28.47;10.83;;;;;;;-145.69;66.03;52301.81;5113264;28;20205;-79
2023/11/22 00:08:08;;;;;;;21.10;10.57;;;;;;;-145.69;65.88;52337.44;5113373;28;20286;-80
2023/11/22 00:10:35;;;;;;;20.60;10.13;;;;;;;-145.69;66.08;52313.69;5113578;28;20201;-79
2023/11/22 00:13:02;;;;;;;19.60;9.23;;;;;;;-145.69;66.01;52309.72;5112818;28;20228;-79
2023/11/22 00:15:33;;;;;;;19.03;8.97;;;;;;;-145.69;66.13;52329.53;5113594;28;20203;-79
2023/11/22 00:18:03;;;;;;;21.70;9.90;;;;;;;-145.69;65.88;52303.78;5113262;28;20664;-79
2023/11/22 00:20:29;;;;;;;38.30;9.80;;;;;;;-145.69;66.18;52311.69;5113389;28;20233;-79
2023/11/22 00:22:56;;;;;;;35.87;10.17;;;;;;;-145.69;66.28;52329.53;5113204;28;20660;-79
2023/11/22 00:25:24;;;;;;;119.70;12.20;;;;;;;-145.69;66.86;52321.59;5113627;28;20205;-79
2023/11/22 00:27:52;;;;;;;72.43;10.53;;;;;;;-145.69;66.56;52287.94;5113568;28;20209;-78
2023/11/22 00:30:19;;;;;;;34.53;10.83;;;;;;;-145.69;66.55;52293.88;5111682;28;20292;-79
2023/11/22 00:32:46;;;;;;;21.97;9.40;;;;;;;-145.69;66.16;52313.69;5113258;28;20288;-79
2023/11/22 00:35:12;;;;;;;51.13;8.93;;;;;;;-145.69;66.10;52329.53;5112881;28;20228;-80
2023/11/22 00:37:39;;;;;;;46.57;10.00;;;;;;;-145.69;65.93;52301.81;5113527;28;20296;-79
2023/11/22 00:40:10;;;;;;;28.77;8.80;;;;;;;-145.69;65.90;52313.69;5112771;28;20197;-79
2023/11/22 00:42:37;;;;;;;59.83;10.70;;;;;;;-145.69;66.19;52305.75;5115811;28;20193;-78
2023/11/22 00:45:08;;;;;;;28.67;10.20;;;;;;;-145.69;65.87;52329.53;5133681;28;20201;-79
2023/11/22 00:47:34;;;;;;;21.23;9.33;;;;;;;-145.69;66.27;52345.38;5136703;27;20200;-79
2023/11/22 00:50:07;;;;;;;23.50;9.40;;;;;;;-145.69;65.78;52301.81;5137901;27;20567;-79
2023/11/22 00:52:34;;;;;;;18.80;8.30;;;;;;;-145.69;66.07;52321.59;5137877;27;20196;-79
2023/11/22 00:55:01;;;;;;;17.00;7.33;;;;;;;-145.69;66.52;52339.44;5137951;27;20229;-79
2023/11/22 00:57:29;;;;;;;15.33;7.10;;;;;;;-145.69;65.83;52337.44;5137396;27;20203;-79
2023/11/22 00:59:56;;;;;;;17.57;8.57;;;;;;;-145.69;66.48;52335.47;5137382;27;20287;-79
2023/11/22 01:02:27;;;;;;;19.67;8.10;;;;;;;-145.69;65.89;52303.78;5137869;27;20208;-79
2023/11/22 01:04:53;;;;;;;18.27;8.47;;;;;;;-145.69;65.23;52311.69;5137813;27;20196;-79
2023/11/22 01:07:20;;;;;;;17.83;7.73;;;;;;;-145.69;65.83;52303.78;5137645;27;20235;-79
2023/11/22 01:09:46;;;;;;;19.80;8.67;;;;;;;-145.69;66.02;52317.66;5121610;27;20185;-79
2023/11/22 01:12:13;;;;;;;20.13;9.60;;;;;;;-145.69;65.73;52301.81;5116275;28;20209;-78
2023/11/22 01:14:39;;;;;;;17.73;8.63;;;;;;;-145.69;65.44;52291.91;5113657;27;20232;-79
2023/11/22 01:17:06;;;;;;;19.60;9.53;;;;;;;-145.69;65.38;52335.47;5116928;28;20205;-79
2023/11/22 01:19:34;;;;;;;16.65;8.75;;;;;;;-145.69;66.06;52305.75;5116700;28;20378;-79
2023/11/22 01:22:00;;;;;;;20.50;8.60;;;;;;;-145.69;65.84;52325.56;5116514;28;20197;-79
2023/11/22 01:24:28;;;;;;;27.30;10.00;;;;;;;-145.69;65.50;52309.72;5116606;28;20201;-79
2023/11/22 01:26:56;;;;;;;19.20;9.37;;;;;;;-145.69;65.61;52305.75;5116552;28;20652;-79
2023/11/22 01:29:23;;;;;;;26.90;9.90;;;;;;;-145.69;66.25;52301.81;5116327;28;20228;-79
2023/11/22 01:31:51;;;;;;;18.53;8.90;;;;;;;-145.69;66.15;52331.50;5116032;28;20209;-79
2023/11/22 01:34:17;;;;;;;17.53;8.83;;;;;;;-145.69;66.11;52309.72;5116242;28;20225;-78
2023/11/22 01:36:45;;;;;;;16.50;8.53;;;;;;;-145.69;65.73;52295.84;5116267;28;20205;-79
2023/11/22 01:39:13;;;;;;;19.67;8.80;;;;;;;-145.69;66.10;52307.75;5116132;28;20225;-79
2023/11/22 01:41:41;;;;;;;25.77;8.57;;;;;;;-145.69;65.73;52305.75;5116292;28;20231;-79
2023/11/22 01:44:08;;;;;;;22.33;9.07;;;;;;;-145.69;66.03;52297.84;5131287;27;20292;-79
2023/11/22 01:46:35;;;;;;;19.07;8.57;;;;;;;-145.69;66.36;52287.94;5133614;27;20201;-80
2023/11/22 01:49:01;;;;;;;23.33;9.30;;;;;;;-145.69;65.75;52287.94;5116079;28;20185;-78
2023/11/22 01:51:28;;;;;;;153.03;11.03;;;;;;;-145.69;65.77;52305.75;5115970;28;20197;-79
2023/11/22 01:53:58;;;;;;;30.53;10.33;;;;;;;-145.69;65.64;52305.75;5116157;28;20222;-79
2023/11/22 01:56:27;;;;;;;17.27;8.20;;;;;;;-145.69;66.30;52282.00;5116015;28;20601;-79
2023/11/22 01:58:56;;;;;;;19.10;8.50;;;;;;;-145.69;65.88;52266.16;5114464;28;20575;-79
2023/11/22 02:01:23;;;;;;;18.10;8.70;;;;;;;-145.69;66.03;52313.69;5116191;28;20205;-79
2023/11/22 02:03:52;;;;;;;15.97;8.57;;;;;;;-145.69;65.56;52301.81;5115869;28;20667;-79
2023/11/22 02:06:19;;;;;;;17.00;8.00;;;;;;;-145.69;65.51;52315.66;5115723;28;20211;-79
2023/11/22 02:08:45;;;;;;;16.90;8.30;;;;;;;-145.69;65.36;52319.63;5115763;28;20703;-79
2023/11/22 02:11:13;;;;;;;17.60;6.97;;;;;;;-145.69;65.69;52301.81;5115800;28;20682;-79
2023/11/22 02:13:40;;;;;;;15.40;7.67;;;;;;;-145.69;65.11;52293.88;5126394;27;20204;-78
2023/11/22 02:16:06;;;;;;;15.17;7.40;;;;;;;-145.69;65.91;52291.91;5136323;27;20197;-78
2023/11/22 02:18:33;;;;;;;13.17;6.87;;;;;;;-145.69;65.66;52321.59;5133534;27;20203;-78
2023/11/22 02:21:01;;;;;;;13.67;7.40;;;;;;;-145.69;65.18;52285.97;5115586;28;20246;-78
2023/11/22 02:23:30;;;;;;;9.33;5.40;;;;;;;-145.69;65.50;52295.84;5115995;28;20206;-78
2023/11/22 02:25:58;;;;;;;8.43;4.97;;;;;;;-145.69;64.91;52305.75;5115479;28;20224;-79
2023/11/22 02:28:26;;;;;;;5.00;2.50;;;;;;;-145.69;64.34;52345.38;5115679;28;20193;-79
2023/11/22 02:30:54;;;;;;;3.73;1.80;;;;;;;-145.69;64.99;52301.81;5115636;28;20284;-84
2023/11/22 02:33:23;;;;;;;3.00;1.70;;;;;;;-145.69;65.50;52323.59;5115304;28;20233;-78
2023/11/22 02:35:50;;;;;;;2.43;1.83;;;;;;;-145.69;64.98;52307.75;5115201;28;20221;-79
2023/11/22 02:38:17;;;;;;;1.73;1.27;;;;;;;-145.69;65.29;52325.56;5115470;28;20229;-78
2023/11/22 02:40:49;;;;;;;1.27;1.17;;;;;;;-145.69;65.60;52317.66;5115504;28;20255;-79
2023/11/22 02:43:16;;;;;;;3.57;1.10;;;;;;;-145.69;66.52;52329.53;5115026;28;20325;-79
2023/11/22 02:45:44;;;;;;;1.10;1.00;;;;;;;-145.69;65.67;52321.59;5114999;28;20213;-79
2023/11/22 02:48:11;;;;;;;1.00;0.90;;;;;;;-145.69;66.50;52353.28;5114505;28;20199;-78
2023/11/22 02:50:38;;;;;;;0.83;0.77;;;;;;;-145.69;67.01;52319.63;5114797;28;20205;-79
2023/11/22 02:53:04;;;;;;;0.80;0.80;;;;;;;-145.69;67.03;52317.66;5115029;28;20236;-79
2023/11/22 02:55:31;;;;;;;0.97;0.80;;;;;;;-145.69;67.12;52341.41;5114541;28;20833;-81
2023/11/22 02:57:59;;;;;;;1.20;0.97;;;;;;;-145.69;66.53;52333.47;5115051;28;20201;-80
2023/11/22 03:00:27;;;;;;;1.43;1.20;;;;;;;-145.69;66.80;52325.56;5114944;28;20288;-80
2023/11/22 03:02:54;;;;;;;2.03;1.50;;;;;;;-145.69;67.06;52325.56;5114509;28;20693;-79
2023/11/22 03:05:21;;;;;;;1.57;1.33;;;;;;;-145.69;67.34;52327.53;5114429;28;20235;-79
2023/11/22 03:07:48;;;;;;;1.60;1.33;;;;;;;-145.69;66.83;52351.31;5114704;28;20229;-79
2023/11/22 03:10:17;;;;;;;1.63;1.33;;;;;;;-145.69;66.72;52323.59;5114292;28;20216;-80
2023/11/22 03:12:44;;;;;;;1.03;0.93;;;;;;;-145.69;66.98;52317.66;5116581;28;20209;-79
2023/11/22 03:15:12;;;;;;;1.37;1.00;;;;;;;-145.69;66.55;52327.53;5132297;27;20221;-80
2023/11/22 03:17:39;;;;;;;1.07;0.97;;;;;;;-145.69;67.03;52359.22;5114041;28;20677;-79
2023/11/22 03:20:10;;;;;;;1.30;1.00;;;;;;;-145.69;66.33;52337.44;5114175;28;20201;-79
2023/11/22 03:22:37;;;;;;;1.40;0.90;;;;;;;-145.69;66.44;52345.38;5114251;28;20250;-79
2023/11/22 03:25:04;;;;;;;1.07;0.90;;;;;;;-145.69;66.81;52339.44;5114423;28;20209;-79
2023/11/22 03:27:31;;;;;;;1.17;0.90;;;;;;;-145.69;66.55;52345.38;5114406;28;20564;-79
2023/11/22 03:29:58;;;;;;;1.37;0.90;;;;;;;-145.69;66.32;52379.03;5114269;28;20208;-78
2023/11/22 03:32:26;;;;;;;3.73;1.20;;;;;;;-145.69;67.18;52335.47;5114042;28;20290;-79
2023/11/22 03:34:52;;;;;;;1.23;1.10;;;;;;;-145.69;66.48;52335.47;5114273;28;20232;-79
2023/11/22 03:37:19;;;;;;;3.17;1.90;;;;;;;-145.69;66.60;52345.38;5114328;28;20208;-80
2023/11/22 03:39:48;;;;;;;1.70;1.30;;;;;;;-145.69;66.71;52371.13;5114121;28;20541;-79
2023/11/22 03:42:15;;;;;;;3.03;2.20;;;;;;;-145.69;66.41;52331.50;5113561;28;20197;-79
2023/11/22 03:44:41;;;;;;;3.83;2.60;;;;;;;-145.69;66.52;52353.28;5114076;28;20220;-80
2023/11/22 03:47:08;;;;;;;2.73;1.90;;;;;;;-145.69;66.33;52341.41;5113968;28;20201;-79
2023/11/22 03:49:36;;;;;;;3.37;2.03;;;;;;;-145.69;66.06;52274.06;5113817;28;20201;-80
2023/11/22 03:52:02;;;;;;;4.43;1.90;;;;;;;-145.69;65.88;52357.25;5113861;28;20571;-79
2023/11/22 03:54:29;;;;;;;2.77;2.07;;;;;;;-145.69;65.70;52335.47;5113844;28;20236;-79
2023/11/22 03:56:55;;;;;;;3.67;2.53;;;;;;;-145.69;65.95;52373.09;5113617;28;20198;-80
2023/11/22 03:59:22;;;;;;;4.13;2.73;;;;;;;-145.69;66.26;52333.47;5113834;28;20648;-79
2023/11/22 04:01:48;;;;;;;4.30;2.60;;;;;;;-145.69;66.12;52327.53;5113655;28;20669;-79
2023/11/22 04:04:15;;;;;;;4.67;2.90;;;;;;;-145.69;66.03;52335.47;5113648;28;20205;-79
2023/11/22 04:06:43;;;;;;;6.50;3.43;;;;;;;-145.69;66.15;52333.47;5113668;28;20193;-78
2023/11/22 04:09:12;;;;;;;5.93;2.90;;;;;;;-145.69;66.39;52329.53;5113698;28;20247;-79
2023/11/22 04:11:38;;;;;;;11.77;4.33;;;;;;;-145.69;66.77;52375.06;5113689;28;20206;-79
2023/11/22 04:14:05;;;;;;;58.03;5.33;;;;;;;-145.69;66.55;52349.31;5112944;28;20660;-80
2023/11/22 04:16:31;;;;;;;46.30;5.90;;;;;;;-145.69;66.40;52337.44;5113454;28;20208;-79
2023/11/22 04:18:58;;;;;;;86.37;7.13;;;;;;;-145.69;66.41;52365.16;5113342;28;20193;-78
2023/11/22 04:21:25;;;;;;;65.03;6.40;;;;;;;-145.69;66.01;52361.22;5112400;28;20553;-78
2023/11/22 04:23:53;;;;;;;14.50;4.90;;;;;;;-145.69;66.44;52357.25;5113385;28;20201;-80
2023/11/22 04:26:20;;;;;;;9.63;4.23;;;;;;;-145.69;66.15;52365.16;5112985;28;20201;-79
2023/11/22 04:28:46;;;;;;;7.20;4.10;;;;;;;-145.69;66.27;52377.06;5113422;28;20206;-79
2023/11/22 04:31:13;;;;;;;8.90;4.50;;;;;;;-145.69;66.20;52357.25;5113108;28;20201;-79
2023/11/22 04:33:39;;;;;;;8.60;4.47;;;;;;;-145.69;66.32;52351.31;5113061;28;20671;-79
2023/11/22 04:36:07;;;;;;;7.20;3.90;;;;;;;-145.69;66.66;52349.31;5113043;28;20695;-80
2023/11/22 04:38:34;;;;;;;6.80;3.83;;;;;;;-145.69;66.26;52349.31;5113369;28;20667;-79
2023/11/22 04:41:02;;;;;;;7.93;4.33;;;;;;;-145.69;66.78;52321.59;5113004;28;20201;-79
2023/11/22 04:43:28;;;;;;;8.63;4.37;;;;;;;-145.69;66.07;52353.28;5112920;28;20197;-79
2023/11/22 04:45:55;;;;;;;11.13;4.80;;;;;;;-145.69;66.11;52377.06;5113317;28;20201;-79
2023/11/22 04:48:21;;;;;;;6.03;3.57;;;;;;;-145.69;66.85;52365.16;5112843;28;20221;-79
2023/11/22 04:50:48;;;;;;;6.73;3.63;;;;;;;-145.69;66.02;52371.13;5092890;28;20201;-79
2023/11/22 04:53:14;;;;;;;10.67;4.50;;;;;;;-145.69;66.35;52337.44;5092557;28;20660;-78
2023/11/22 04:55:41;;;;;;;7.47;3.63;;;;;;;-145.69;66.26;52377.06;5092846;28;20233;-79
2023/11/22 04:58:08;;;;;;;8.30;3.50;;;;;;;-145.69;65.99;52351.31;5092412;28;20194;-79
2023/11/22 05:00:35;;;;;;;6.17;3.20;;;;;;;-145.69;66.18;52345.38;5092734;28;20202;-79
2023/11/22 05:03:01;;;;;;;9.87;3.60;;;;;;;-145.69;65.35;52349.31;5092611;28;20272;-79
2023/11/22 05:05:28;;;;;;;5.50;3.07;;;;;;;-145.69;66.12;52353.28;5092757;28;20208;-79
2023/11/22 05:07:54;;;;;;;5.20;2.93;;;;;;;-145.69;66.12;52373.09;5092158;28;20291;-79
2023/11/22 05:10:21;;;;;;;4.63;2.73;;;;;;;-145.69;65.87;52365.16;5092458;28;20221;-78
2023/11/22 05:12:47;;;;;;;4.60;2.93;;;;;;;-145.69;66.11;52392.91;5106568;28;20206;-78
2023/11/22 05:15:15;;;;;;;4.90;2.63;;;;;;;-145.69;65.68;52365.16;5112373;28;20213;-77
2023/11/22 05:17:42;;;;;;;4.97;2.60;;;;;;;-145.69;66.39;52371.13;5112865;28;20563;-79
2023/11/22 05:20:10;;;;;;;4.33;2.40;;;;;;;-145.69;65.48;52373.09;5112626;28;20292;-79
2023/11/22 05:22:37;;;;;;;4.17;2.30;;;;;;;-145.69;65.60;52365.16;5112919;28;20197;-79
2023/11/22 05:25:03;;;;;;;2.37;1.97;;;;;;;-145.69;65.73;52337.44;5112718;28;20239;-78
2023/11/22 05:27:31;;;;;;;3.93;2.20;;;;;;;-145.69;65.58;52351.31;5112792;28;20545;-78
2023/11/22 05:29:57;;;;;;;4.10;2.40;;;;;;;-145.69;65.29;52359.22;5112708;28;20205;-78
2023/11/22 05:32:26;;;;;;;5.03;2.87;;;;;;;-145.69;65.66;52359.22;5113613;28;20566;-78
2023/11/22 05:34:52;;;;;;;5.63;3.00;;;;;;;-145.69;65.57;52369.13;5116298;28;20744;-78
2023/11/22 05:37:19;;;;;;;6.00;3.10;;;;;;;-145.69;65.45;52335.47;5116204;28;20679;-79
2023/11/22 05:39:45;;;;;;;7.97;3.60;;;;;;;-145.69;65.35;52390.91;5116118;28;20201;-78
2023/11/22 05:42:12;;;;;;;5.97;2.97;;;;;;;-145.69;65.63;52343.38;5116333;28;20193;-79
2023/11/22 05:44:39;;;;;;;10.00;5.63;;;;;;;-145.69;65.16;52341.41;5116249;28;20238;-79
2023/11/22 05:47:07;;;;;;;7.27;4.60;;;;;;;-145.69;65.28;52373.09;5116352;28;20197;-78
2023/11/22 05:49:35;;;;;;;6.93;4.10;;;;;;;-145.69;65.67;52377.06;5115948;28;20276;-79
2023/11/22 05:52:01;;;;;;;9.23;4.47;;;;;;;-145.69;65.41;52373.09;5115804;28;20201;-78
2023/11/22 05:54:29;;;;;;;12.23;6.17;;;;;;;-145.69;65.04;52361.22;5116359;28;20818;-78
2023/11/22 05:56:56;;;;;;;13.00;6.40;;;;;;;-145.69;65.08;52357.25;5116199;28;20226;-79
2023/11/22 05:59:23;;;;;;;13.23;7.60;;;;;;;-145.69;65.36;52361.22;5116275;28;20192;-78
2023/11/22 06:01:50;;;;;;;11.30;5.77;;;;;;;-145.69;65.33;52384.97;5115780;28;20201;-79
2023/11/22 06:04:17;;;;;;;14.73;7.20;;;;;;;-145.69;65.06;52377.06;5115868;28;20718;-78
2023/11/22 06:06:44;;;;;;;10.23;6.43;;;;;;;-145.69;65.05;52355.28;5115985;28;20206;-78
2023/11/22 06:09:14;;;;;;;11.47;6.50;;;;;;;-145.69;65.37;52369.13;5115626;28;20677;-78
2023/11/22 06:11:40;;;;;;;14.40;6.80;;;;;;;-145.69;64.74;52398.84;5115830;28;20606;-79
2023/11/22 06:14:07;;;;;;;12.73;7.17;;;;;;;-145.69;64.88;52398.84;5115729;27;20194;-79
2023/11/22 06:16:33;;;;;;;17.20;8.43;;;;;;;-145.69;65.34;52341.41;5115591;28;20244;-78
2023/11/22 06:19:00;;;;;;;18.03;7.17;;;;;;;-145.69;64.89;52355.28;5115398;28;20193;-79
2023/11/22 06:21:26;;;;;;;13.57;6.20;;;;;;;-145.69;65.24;52390.91;5115883;28;20202;-79
2023/11/22 06:23:56;;;;;;;13.70;6.00;;;;;;;-145.69;64.83;52371.13;5115359;28;20189;-79
2023/11/22 06:26:22;;;;;;;11.60;6.13;;;;;;;-145.69;64.96;52357.25;5115724;28;20201;-79
2023/11/22 06:28:49;;;;;;;11.73;5.80;;;;;;;-145.69;64.68;52379.03;5115245;28;20202;-78
2023/11/22 06:31:15;;;;;;;12.20;6.57;;;;;;;-145.69;64.82;52386.97;5115239;28;20209;-80
2023/11/22 06:33:42;;;;;;;10.67;5.77;;;;;;;-145.69;65.19;52381.00;5115381;28;20204;-79
2023/11/22 06:36:11;;;;;;;10.50;5.67;;;;;;;-145.69;64.68;52371.13;5115306;28;20233;-79
2023/11/22 06:38:37;;;;;;;10.70;5.43;;;;;;;-145.69;64.82;52365.16;5115434;28;20212;-79
2023/11/22 06:41:06;;;;;;;12.20;6.20;;;;;;;-145.69;64.61;52388.94;5115108;28;20202;-79
2023/11/22 06:43:32;;;;;;;12.87;6.07;;;;;;;-145.69;64.41;52365.16;5114608;28;20193;-79
2023/11/22 06:45:59;;;;;;;11.63;6.10;;;;;;;-145.69;64.73;52420.63;5115024;28;20200;-79
2023/11/22 06:48:25;;;;;;;11.07;5.97;;;;;;;-145.69;63.99;52404.78;5114549;28;20205;-79
2023/11/22 06:50:52;;;;;;;10.30;6.03;;;;;;;-145.69;64.54;52365.16;5115353;27;20198;-79
2023/11/22 06:53:20;;;;;;;10.57;5.43;;;;;;;-145.69;64.18;52369.13;5114973;28;20796;-78
2023/11/22 06:55:46;;;;;;;11.33;5.50;;;;;;;-145.69;64.03;52394.88;5115283;28;20331;-78
2023/11/22 06:58:14;;;;;;;10.83;6.03;;;;;;;-145.69;64.31;52396.84;5114516;28;20648;-78
2023/11/22 07:00:41;;;;;;;11.77;5.90;;;;;;;-145.69;63.91;52386.97;5114684;28;20201;-79
2023/11/22 07:03:07;;;;;;;13.20;6.30;;;;;;;-145.69;63.72;52329.53;5115156;28;20198;-78
2023/11/22 07:05:34;;;;;;;11.93;6.10;;;;;;;-145.69;63.87;52361.22;5114515;28;20200;-78
2023/11/22 07:08:01;;;;;;;11.00;5.20;;;;;;;-145.69;64.66;52357.25;5114468;27;20221;-78
2023/11/22 07:10:28;;;;;;;10.43;5.93;;;;;;;-145.69;65.69;52371.13;5114781;28;20280;-78
2023/11/22 07:12:56;;;;;;;11.37;5.97;;;;;;;-145.69;65.11;52384.97;5114011;28;20205;-78
2023/11/22 07:15:24;;;;;;;12.53;5.93;;;;;;;-145.69;65.91;52384.97;5103597;28;20218;-78
2023/11/22 07:17:50;;;;;;;11.10;6.00;;;;;;;-145.69;65.46;52369.13;5094372;28;20205;-78
2023/11/22 07:20:17;;;;;;;10.57;5.93;;;;;;;-145.69;65.77;52383.00;5108884;28;20631;-78
2023/11/22 07:22:44;;;;;;;10.70;6.20;;;;;;;-145.69;65.37;52373.09;5114379;28;20193;-78
2023/11/22 07:25:17;;;;;;;10.77;5.87;;;;;;;-145.69;65.20;52377.06;5114100;28;20197;-79
2023/11/22 07:27:45;;;;;;;9.93;4.90;;;;;;;-145.69;65.21;52377.06;5114482;28;20270;-78
2023/11/22 07:30:13;;;;;;;10.33;5.50;;;;;;;-145.69;64.99;52404.78;5113896;28;20228;-79
2023/11/22 07:32:41;;;;;;;9.97;5.27;;;;;;;-145.69;65.44;52384.97;5114353;28;20606;-78
2023/11/22 07:35:09;;;;;;;10.13;5.37;;;;;;;-145.69;64.69;52369.13;5114291;28;20205;-77
2023/11/22 07:37:35;;;;;;;9.23;4.90;;;;;;;-145.69;65.43;52400.81;5114276;28;20278;-78
2023/11/22 07:40:03;;;;;;;14.20;6.03;;;;;;;-145.69;64.19;52373.09;5113845;28;20229;-78
2023/11/22 07:42:30;;;;;;;12.17;5.30;;;;;;;-145.69;65.03;52353.28;5113886;28;20635;-78
2023/11/22 07:44:56;;;;;;;8.27;4.57;;;;;;;-145.69;64.64;52402.78;5113632;28;20190;-78
2023/11/22 07:47:24;;;;;;;8.13;5.23;;;;;;;-145.69;64.39;52369.13;5114144;28;20225;-78
2023/11/22 07:49:52;;;;;;;10.37;5.40;;;;;;;-145.69;64.96;52381.00;5113799;28;20228;-78
2023/11/22 07:52:18;;;;;;;12.27;4.87;;;;;;;-145.69;64.85;52386.97;5113679;28;20193;-77
2023/11/22 07:54:45;;;;;;;8.13;4.90;;;;;;;-145.69;66.04;52373.09;5114098;28;20201;-79
2023/11/22 07:57:11;;;;;;;7.73;4.60;;;;;;;-145.69;65.58;52367.16;5113662;28;20221;-79
2023/11/22 07:59:38;;;;;;;8.70;4.73;;;;;;;-145.69;64.88;52341.41;5113820;28;20204;-79
2023/11/22 08:02:07;;;;;;;8.43;4.43;;;;;;;-145.69;65.81;52373.09;5113931;28;20208;-78
2023/11/22 08:04:34;;;;;;;8.37;4.57;;;;;;;-145.69;65.07;52383.00;5113799;28;20201;-80
2023/11/22 08:07:02;;;;;;;7.63;4.60;;;;;;;-145.69;65.84;52384.97;5113541;28;20263;-78
2023/11/22 08:09:32;;;;;;;11.67;4.60;;;;;;;-145.69;63.96;52373.09;5113853;28;20201;-78
2023/11/22 08:11:59;;;;;;;10.77;4.40;;;;;;;-145.69;63.97;52383.00;5113009;28;20691;-77
2023/11/22 08:14:27;;;;;;;8.53;4.97;;;;;;;-145.69;65.41;52363.19;5113108;28;20693;-77
2023/11/22 08:16:54;;;;;;;12.93;5.27;;;;;;;-145.69;65.86;52365.16;5113395;28;20225;-77
2023/11/22 08:19:21;;;;;;;8.87;4.80;;;;;;;-145.69;65.23;52412.69;5124311;27;20188;-77
2023/11/22 08:21:48;;;;;;;9.73;4.57;;;;;;;-145.69;64.74;52373.09;5127274;27;20529;-79
2023/11/22 08:24:16;;;;;;;8.00;4.40;;;;;;;-145.69;64.68;52371.13;5113008;28;20208;-77
2023/11/22 08:26:43;;;;;;;9.13;4.67;;;;;;;-145.69;64.96;52383.00;5113122;28;20194;-77
2023/11/22 08:29:11;;;;;;;8.30;4.43;;;;;;;-145.69;63.13;52384.97;5112187;28;20194;-76
2023/11/22 08:31:37;;;;;;;7.33;4.53;;;;;;;-145.69;64.41;52365.16;5098895;28;20400;-77
2023/11/22 08:34:06;;;;;;;7.13;4.70;;;;;;;-145.69;64.24;52388.94;5113134;28;20200;-77
2023/11/22 08:36:34;;;;;;;8.90;5.33;;;;;;;-145.69;64.12;52388.94;5112776;28;20695;-77
2023/11/22 08:39:00;;;;;;;11.93;4.93;;;;;;;-145.69;64.59;52341.41;5112792;28;20284;-77
2023/11/22 08:41:29;;;;;;;7.83;4.37;;;;;;;-145.69;64.56;52392.91;5113101;28;20560;-76
2023/11/22 08:43:56;;;;;;;8.83;4.27;;;;;;;-145.69;64.16;52365.16;5112949;28;20201;-77
2023/11/22 08:46:23;;;;;;;9.17;4.57;;;;;;;-145.69;63.73;52351.31;5100218;28;20228;-77
2023/11/22 08:48:50;;;;;;;7.13;4.53;;;;;;;-145.69;64.04;52381.00;5113036;28;20194;-76
2023/11/22 08:51:17;;;;;;;9.20;5.50;;;;;;;-145.69;63.33;52369.13;5112664;28;20197;-77
2023/11/22 08:53:44;;;;;;;7.27;4.10;;;;;;;-145.69;64.24;52381.00;5112889;28;20284;-77
2023/11/22 08:56:11;;;;;;;7.50;4.40;;;;;;;-145.69;62.91;52371.13;5112993;28;20224;-77
2023/11/22 08:58:39;;;;;;;8.90;4.97;;;;;;;-145.69;64.21;52412.69;5112991;28;20266;-77
2023/11/22 09:01:06;;;;;;;6.77;4.70;;;;;;;-145.69;62.94;52384.97;5112874;28;20232;-76
2023/11/22 09:03:33;;;;;;;8.67;5.17;;;;;;;-145.69;63.06;52396.84;5112843;28;20740;-79
2023/11/22 09:06:00;;;;;;;8.40;5.07;;;;;;;-145.69;62.09;52365.16;5112560;28;20246;-77
2023/11/22 09:08:26;;;;;;;8.57;5.33;;;;;;;-145.69;62.40;52383.00;5115138;28;20699;-77
2023/11/22 09:10:54;;;;;;;9.87;4.63;;;;;;;-145.69;62.79;52383.00;5116960;28;20206;-76
2023/11/22 09:13:22;;;;;;;7.93;5.10;;;;;;;-145.69;63.86;52335.47;5114341;28;20204;-77
2023/11/22 09:15:50;;;;;;;9.17;5.30;;;;;;;-145.69;63.60;52341.41;5116426;28;20204;-77
2023/11/22 09:18:17;;;;;;;8.83;5.00;;;;;;;-145.69;63.71;52355.28;5116930;28;20193;-78
2023/11/22 09:20:44;;;;;;;8.93;5.27;;;;;;;-145.69;62.99;52396.84;5116978;28;20197;-77
2023/11/22 09:23:11;;;;;;;8.30;5.07;;;;;;;-145.69;61.97;52369.13;5116722;28;20301;-77
2023/11/22 09:25:38;;;;;;;7.80;4.60;;;;;;;-145.69;63.27;52377.06;5116711;28;20201;-78
2023/11/22 09:28:07;;;;;;;8.63;5.00;;;;;;;-145.69;63.46;52394.88;5116406;28;20595;-78
2023/11/22 09:30:35;;;;;;;9.67;5.13;;;;;;;-145.69;62.14;52386.97;5116456;28;20197;-79
2023/11/22 09:33:05;;;;;;;8.30;5.00;;;;;;;-145.69;62.59;52369.13;5116394;28;20660;-78
2023/11/22 09:35:32;;;;;;;7.03;4.67;;;;;;;-145.69;62.39;52390.91;5116518;28;20204;-78
2023/11/22 09:38:00;;;;;;;7.77;4.70;;;;;;;-145.69;62.85;52331.50;5115975;28;20575;-80
2023/11/22 09:40:28;;;;;;;9.73;5.27;;;;;;;-145.69;62.29;52353.28;5115659;28;20683;-79
2023/11/22 09:42:58;;;;;;;8.97;5.40;;;;;;;-145.69;61.56;52384.97;5115985;28;20204;-79
2023/11/22 09:45:25;;;;;;;8.10;4.90;;;;;;;-145.69;61.45;52365.16;5115461;28;20205;-80
2023/11/22 09:47:52;;;;;;;9.10;5.20;;;;;;;-145.69;62.15;52361.22;5115988;28;20198;-80
2023/11/22 09:50:25;;;;;;;6.83;4.47;;;;;;;-145.69;62.42;52349.31;5115689;28;20678;-79
2023/11/22 09:52:53;;;;;;;9.30;5.20;;;;;;;-145.69;62.71;52347.34;5115825;28;20239;-80
2023/11/22 09:55:22;;;;;;;9.10;5.17;;;;;;;-145.69;62.72;52390.91;5116030;28;20561;-80
2023/11/22 09:57:49;;;;;;;9.60;5.20;;;;;;;-145.69;62.95;52353.28;5115535;28;20228;-79
2023/11/22 10:00:21;;;;;;;9.23;5.23;;;;;;;-145.69;63.04;52361.22;5116050;28;20197;-79
2023/11/22 10:02:48;;;;;;;8.23;5.60;;;;;;;-145.69;62.38;52388.94;5116099;28;20283;-79
2023/11/22 10:05:14;;;;;;;8.63;5.23;;;;;;;-145.69;62.22;52373.09;5115899;28;20209;-79
2023/11/22 10:07:42;;;;;;;9.33;5.17;;;;;;;-145.69;61.52;52386.97;5115385;28;20240;-79
2023/11/22 10:10:11;;;;;;;8.97;5.63;;;;;;;-145.69;60.97;52400.81;5115994;28;20197;-80
2023/11/22 10:12:40;;;;;;;6.83;4.33;;;;;;;-145.69;61.79;52365.16;5115694;28;20211;-79
2023/11/22 10:15:13;;;;;;;8.70;4.97;;;;;;;-145.69;61.08;52404.78;5115487;27;20193;-80
2023/11/22 10:17:40;;;;;;;8.07;4.93;;;;;;;-145.69;61.45;52367.16;5115059;28;20232;-79
2023/11/22 10:20:11;;;;;;;9.30;5.57;;;;;;;-145.69;60.96;52365.16;5114224;28;20200;-79
2023/11/22 10:22:47;;;;;;;8.50;5.20;;;;;;;-145.69;60.51;52369.13;5115370;28;20193;-79
2023/11/22 10:25:14;;;;;;;8.13;4.83;;;;;;;-145.69;60.30;52353.28;5115175;28;20197;-79
2023/11/22 10:27:41;;;;;;;9.90;5.93;;;;;;;-145.69;60.76;52353.28;5114721;28;20652;-79
2023/11/22 10:30:09;;;;;;;10.13;5.40;;;;;;;-145.69;60.62;52381.00;5115447;28;20197;-79
2023/11/22 10:32:38;;;;;;;8.60;5.33;;;;;;;-145.69;60.74;52371.13;5114720;28;20656;-79
2023/11/22 10:35:07;;;;;;;9.10;4.93;;;;;;;-145.69;60.49;52361.22;5115065;28;20648;-79
2023/11/22 10:37:34;;;;;;;9.30;5.77;;;;;;;-145.69;60.06;52373.09;5115016;28;20282;-79
2023/11/22 10:40:02;;;;;;;9.20;5.07;;;;;;;-145.69;60.26;52373.09;5115386;28;20203;-79
2023/11/22 10:42:28;;;;;;;9.00;5.37;;;;;;;-145.69;60.42;52349.31;5115154;28;20272;-78
2023/11/22 10:44:56;;;;;;;7.80;5.00;;;;;;;-145.69;60.15;52367.16;5114934;28;20204;-79
2023/11/22 10:47:24;;;;;;;9.50;5.27;;;;;;;-145.69;60.34;52361.22;5114607;28;20276;-79
2023/11/22 10:49:52;;;;;;;10.77;4.97;;;;;;;-145.69;60.32;52365.16;5114781;28;20201;-79
2023/11/22 10:52:20;;;;;;;8.47;5.37;;;;;;;-145.69;59.81;52383.00;5114700;28;20633;-79
2023/11/22 10:54:56;;;;;;;7.53;5.10;;;;;;;-145.69;59.35;52341.41;5114745;28;20296;-79
2023/11/22 10:57:34;;;;;;;7.73;4.50;;;;;;;-145.69;58.96;52396.84;5114145;28;20691;-80
2023/11/22 11:00:07;;;;;;;7.57;4.87;;;;;;;-145.69;58.98;52396.84;5114703;28;20670;-80
2023/11/22 11:02:38;;;;;;;9.70;4.90;;;;;;;-145.69;59.78;52381.00;5114516;28;20216;-80
2023/11/22 11:05:15;;;;;;;13.43;4.80;;;;;;;-145.69;59.12;52365.16;5114330;28;20210;-80
2023/11/22 11:07:48;;;;;;;8.97;4.73;;;;;;;-145.69;59.58;52349.31;5114042;28;20227;-80
2023/11/22 11:10:15;;;;;;;9.03;4.93;;;;;;;-145.69;58.58;52337.44;5114541;28;20708;-79
2023/11/22 11:12:45;;;;;;;9.23;4.90;;;;;;;-145.69;58.41;52363.19;5114571;28;20190;-80
2023/11/22 11:15:12;;;;;;;7.20;4.93;;;;;;;-145.69;58.16;52373.09;5113946;28;20598;-78